createdAt,value
2022-09-14T00:00:01.630Z,94860.8
2022-09-14T00:02:09.889Z,94867.8
2022-09-14T00:03:13.290Z,94864.1
2022-09-14T00:04:15.705Z,94865.5
2022-09-14T00:05:18.181Z,94868.7
2022-09-14T00:06:20.381Z,94867
2022-09-14T00:07:22.285Z,94859
2022-09-14T00:08:24.502Z,94855.5
2022-09-14T00:09:26.996Z,94852.7
2022-09-14T00:10:29.197Z,94846.5
2022-09-14T00:11:31.399Z,94846.5
2022-09-14T00:12:33.605Z,94843.6
2022-09-14T00:13:36.088Z,94845
2022-09-14T00:14:38.543Z,94850.5
2022-09-14T00:15:41.033Z,94852.7
2022-09-14T00:16:43.811Z,94850
2022-09-14T00:17:46.415Z,94850.3
2022-09-14T00:18:48.966Z,94853
2022-09-14T00:19:51.515Z,94857.3
2022-09-14T00:20:53.987Z,94858.8
2022-09-14T00:21:56.465Z,94860.5
2022-09-14T00:22:58.670Z,94857.2
2022-09-14T00:24:00.883Z,94867.2
2022-09-14T00:25:03.457Z,94862.2
2022-09-14T00:26:05.952Z,94860.7
2022-09-14T00:27:08.426Z,94857.5
2022-09-14T00:28:10.629Z,94854.9
2022-09-14T00:29:13.117Z,94854.5
2022-09-14T00:30:15.316Z,94856.3
2022-09-14T00:31:18.188Z,94858.3
2022-09-14T00:32:20.868Z,94855.7
2022-09-14T00:33:23.194Z,94857.2
2022-09-14T00:34:25.702Z,94856.9
2022-09-14T00:35:27.908Z,94854.8
2022-09-14T00:36:30.111Z,94848.9
2022-09-14T00:37:32.583Z,94847.2
2022-09-14T00:38:35.061Z,94848.8
2022-09-14T00:39:37.609Z,94847.4
2022-09-14T00:40:40.183Z,94847.2
2022-09-14T00:41:42.377Z,94846.8
2022-09-14T00:42:44.850Z,94847.8
2022-09-14T00:43:47.372Z,94841.8
2022-09-14T00:44:50.042Z,94840.5
2022-09-14T00:45:52.829Z,94838.3
2022-09-14T00:46:55.545Z,94836.7
2022-09-14T00:47:58.021Z,94826.3
2022-09-14T00:49:00.243Z,94824.3
2022-09-14T00:50:02.416Z,94817.6
2022-09-14T00:51:04.327Z,94819.4
2022-09-14T00:52:06.498Z,94817
2022-09-14T00:53:08.705Z,94809.6
2022-09-14T00:54:11.172Z,94809.7
2022-09-14T00:55:13.364Z,94806.4
2022-09-14T00:56:15.864Z,94802.8
2022-09-14T00:57:18.061Z,94803
2022-09-14T00:58:20.585Z,94800.9
2022-09-14T00:59:23.052Z,94797.4
2022-09-14T01:00:25.251Z,94794.6
2022-09-14T01:01:28.192Z,94798
2022-09-14T01:02:31.142Z,94797
2022-09-14T01:03:33.390Z,94799.8
2022-09-14T01:04:35.889Z,94802.5
2022-09-14T01:05:38.346Z,94800.9
2022-09-14T01:06:40.573Z,94794.9
2022-09-14T01:07:43.041Z,94798.3
2022-09-14T01:08:45.334Z,94797.7
2022-09-14T01:09:47.669Z,94786.4
2022-09-14T01:10:50.179Z,94786.3
2022-09-14T01:11:53.413Z,94779.3
2022-09-14T01:12:55.883Z,94776.9
2022-09-14T01:13:58.350Z,94775.2
2022-09-14T01:15:00.825Z,94772.8
2022-09-14T01:16:03.271Z,94769.4
2022-09-14T01:17:05.897Z,94770.8
2022-09-14T01:18:08.469Z,94768
2022-09-14T01:19:10.945Z,94767.5
2022-09-14T01:20:13.434Z,94764.1
2022-09-14T01:21:15.635Z,94765.9
2022-09-14T01:22:18.204Z,94768.2
2022-09-14T01:23:20.682Z,94768
2022-09-14T01:24:23.143Z,94768.3
2022-09-14T01:25:25.340Z,94763
2022-09-14T01:26:27.824Z,94761.7
2022-09-14T01:27:30.320Z,94761.3
2022-09-14T01:28:32.805Z,94752.2
2022-09-14T01:29:35.012Z,94755.7
2022-09-14T01:30:37.479Z,94753.4
2022-09-14T01:31:40.243Z,94758.1
2022-09-14T01:32:42.788Z,94760.7
2022-09-14T01:33:45.373Z,94756.6
2022-09-14T01:34:47.848Z,94758.8
2022-09-14T01:35:50.444Z,94756.1
2022-09-14T01:36:52.906Z,94754.6
2022-09-14T01:37:55.390Z,94751.5
2022-09-14T01:38:57.871Z,94753.8
2022-09-14T01:40:00.625Z,94749.3
2022-09-14T01:41:03.234Z,94748.3
2022-09-14T01:42:05.728Z,94744.8
2022-09-14T01:43:08.214Z,94745.1
2022-09-14T01:44:10.700Z,94745.7
2022-09-14T01:45:12.892Z,94741.3
2022-09-14T01:46:15.616Z,94735.8
2022-09-14T01:47:17.712Z,94735.1
2022-09-14T01:48:19.901Z,94739.6
2022-09-14T01:49:22.128Z,94733.1
2022-09-14T01:50:24.594Z,94730.6
2022-09-14T01:51:26.813Z,94732.5
2022-09-14T01:52:28.423Z,94734.4
2022-09-14T01:53:31.008Z,94737.2
2022-09-14T01:54:33.206Z,94734.1
2022-09-14T01:55:35.404Z,94736.9
2022-09-14T01:56:37.882Z,94743.6
2022-09-14T01:57:40.390Z,94734.1
2022-09-14T01:58:42.391Z,94741.5
2022-09-14T01:59:44.594Z,94743.1
2022-09-14T02:00:47.428Z,94745.4
2022-09-14T02:01:53.518Z,94742
2022-09-14T02:02:56.638Z,94741.1
2022-09-14T02:03:59.500Z,94739.7
2022-09-14T02:05:02.570Z,94739.1
2022-09-14T02:06:04.789Z,94739.4
2022-09-14T02:07:06.756Z,94736.6
2022-09-14T02:08:08.952Z,94732
2022-09-14T02:09:11.500Z,94734.5
2022-09-14T02:10:13.978Z,94735.6
2022-09-14T02:11:16.458Z,94736.4
2022-09-14T02:12:18.656Z,94740.9
2022-09-14T02:13:21.137Z,94743.3
2022-09-14T02:14:23.635Z,94744
2022-09-14T02:15:25.832Z,94741.7
2022-09-14T02:16:28.722Z,94745.6
2022-09-14T02:17:31.114Z,94741.1
2022-09-14T02:18:33.592Z,94743
2022-09-14T02:19:36.064Z,94743.9
2022-09-14T02:20:38.603Z,94745.3
2022-09-14T02:21:41.071Z,94748.9
2022-09-14T02:22:42.995Z,94745.6
2022-09-14T02:23:45.455Z,94748.4
2022-09-14T02:24:47.718Z,94747.2
2022-09-14T02:25:50.181Z,94746.4
2022-09-14T02:26:52.658Z,94746.6
2022-09-14T02:27:54.615Z,94746.9
2022-09-14T02:28:57.152Z,94745.1
2022-09-14T02:29:59.729Z,94748.6
2022-09-14T02:31:02.573Z,94744.6
2022-09-14T02:32:04.565Z,94748
2022-09-14T02:33:06.765Z,94746.5
2022-09-14T02:34:08.683Z,94746.3
2022-09-14T02:35:11.153Z,94741.5
2022-09-14T02:36:13.637Z,94737.8
2022-09-14T02:37:16.119Z,94737.6
2022-09-14T02:38:18.609Z,94736.2
2022-09-14T02:39:21.077Z,94730.4
2022-09-14T02:40:23.969Z,94727.9
2022-09-14T02:41:26.306Z,94728.4
2022-09-14T02:42:28.743Z,94722.6
2022-09-14T02:43:31.211Z,94720.9
2022-09-14T02:44:33.427Z,94716.5
2022-09-14T02:45:35.910Z,94714.8
2022-09-14T02:46:38.732Z,94708.8
2022-09-14T02:47:41.274Z,94703.3
2022-09-14T02:48:43.750Z,94697.7
2022-09-14T02:49:46.207Z,94694.6
2022-09-14T02:50:48.685Z,94689.4
2022-09-14T02:51:50.903Z,94688.1
2022-09-14T02:52:53.113Z,94685.8
2022-09-14T02:53:55.329Z,94690.4
2022-09-14T02:54:57.794Z,94688
2022-09-14T02:56:00.010Z,94687.7
2022-09-14T02:57:02.216Z,94684.1
2022-09-14T02:58:04.386Z,94687.4
2022-09-14T02:59:06.863Z,94688.1
2022-09-14T03:00:09.176Z,94690.6
2022-09-14T03:01:12.104Z,94684.1
2022-09-14T03:02:15.514Z,94691.3
2022-09-14T03:03:17.794Z,94685.8
2022-09-14T03:04:20.265Z,94684.5
2022-09-14T03:05:22.738Z,94682.2
2022-09-14T03:06:25.216Z,94679
2022-09-14T03:07:27.709Z,94676.5
2022-09-14T03:08:30.179Z,94675
2022-09-14T03:09:32.674Z,94673.6
2022-09-14T03:10:34.586Z,94673.9
2022-09-14T03:11:36.817Z,94675.3
2022-09-14T03:12:38.988Z,94674.1
2022-09-14T03:13:41.209Z,94675.5
2022-09-14T03:14:43.403Z,94678.9
2022-09-14T03:15:45.843Z,94679.1
2022-09-14T03:16:48.447Z,94679.3
2022-09-14T03:17:50.669Z,94680.1
2022-09-14T03:18:53.147Z,94681.3
2022-09-14T03:19:55.617Z,94681.4
2022-09-14T03:20:58.086Z,94682.2
2022-09-14T03:22:00.279Z,94680.5
2022-09-14T03:23:02.582Z,94678.3
2022-09-14T03:24:05.061Z,94679.3
2022-09-14T03:25:07.559Z,94678.1
2022-09-14T03:26:10.022Z,94676.8
2022-09-14T03:27:12.321Z,94674.8
2022-09-14T03:28:14.501Z,94675.3
2022-09-14T03:29:17.133Z,94677
2022-09-14T03:30:19.345Z,94677.7
2022-09-14T03:31:22.259Z,94679.5
2022-09-14T03:32:24.903Z,94675.7
2022-09-14T03:33:27.373Z,94670.4
2022-09-14T03:34:29.573Z,94675.4
2022-09-14T03:35:31.777Z,94673.8
2022-09-14T03:36:33.952Z,94668.7
2022-09-14T03:37:36.418Z,94675
2022-09-14T03:38:38.652Z,94673.4
2022-09-14T03:39:41.128Z,94670
2022-09-14T03:40:43.618Z,94672.6
2022-09-14T03:41:45.807Z,94670.6
2022-09-14T03:42:48.088Z,94670.3
2022-09-14T03:43:51.035Z,94670
2022-09-14T03:44:53.116Z,94663.5
2022-09-14T03:45:55.315Z,94664.5
2022-09-14T03:46:57.980Z,94657.3
2022-09-14T03:48:00.455Z,94660.4
2022-09-14T03:49:02.652Z,94660.5
2022-09-14T03:50:05.133Z,94662.6
2022-09-14T03:51:07.030Z,94664.7
2022-09-14T03:52:09.208Z,94656.6
2022-09-14T03:53:11.674Z,94659.6
2022-09-14T03:54:14.264Z,94656.4
2022-09-14T03:55:16.729Z,94654.9
2022-09-14T03:56:19.242Z,94653.3
2022-09-14T03:57:21.463Z,94660.8
2022-09-14T03:58:23.967Z,94665
2022-09-14T03:59:26.457Z,94666.3
2022-09-14T04:00:28.934Z,94662.1
2022-09-14T04:01:31.733Z,94658.8
2022-09-14T04:02:34.610Z,94656.4
2022-09-14T04:03:37.283Z,94665.8
2022-09-14T04:04:39.766Z,94669.1
2022-09-14T04:05:41.949Z,94666.8
2022-09-14T04:06:44.432Z,94663.9
2022-09-14T04:07:46.079Z,94669.3
2022-09-14T04:08:49.178Z,94670.7
2022-09-14T04:09:51.566Z,94678.9
2022-09-14T04:10:54.047Z,94677.5
2022-09-14T04:11:56.263Z,94684.2
2022-09-14T04:12:58.732Z,94685.9
2022-09-14T04:14:01.228Z,94685
2022-09-14T04:15:03.701Z,94685.1
2022-09-14T04:16:06.446Z,94682.8
2022-09-14T04:17:09.103Z,94687.6
2022-09-14T04:18:11.314Z,94690.4
2022-09-14T04:19:13.666Z,94689.7
2022-09-14T04:20:16.132Z,94694
2022-09-14T04:21:18.611Z,94695.8
2022-09-14T04:22:20.812Z,94695.9
2022-09-14T04:23:23.281Z,94694.4
2022-09-14T04:25:30.457Z,94688.9
2022-09-14T04:26:32.943Z,94690
2022-09-14T04:27:35.432Z,94691.2
2022-09-14T04:28:37.945Z,94693.1
2022-09-14T04:29:40.149Z,94688.6
2022-09-14T04:30:42.619Z,94690.6
2022-09-14T04:31:45.460Z,94684.2
2022-09-14T04:32:47.515Z,94683.8
2022-09-14T04:33:50.191Z,94683.3
2022-09-14T04:34:52.214Z,94683.9
2022-09-14T04:35:54.388Z,94685.2
2022-09-14T04:36:56.568Z,94683
2022-09-14T04:37:59.045Z,94678.3
2022-09-14T04:39:01.290Z,94682.2
2022-09-14T04:40:03.858Z,94684.8
2022-09-14T04:41:06.215Z,94679
2022-09-14T04:42:08.797Z,94676.3
2022-09-14T04:43:11.039Z,94674.9
2022-09-14T04:44:13.516Z,94668.4
2022-09-14T04:45:16.159Z,94666.7
2022-09-14T04:46:18.611Z,94666.8
2022-09-14T04:47:21.249Z,94666.9
2022-09-14T04:48:23.723Z,94667.5
2022-09-14T04:49:25.643Z,94671.8
2022-09-14T04:50:27.862Z,94667.5
2022-09-14T04:51:30.067Z,94667.3
2022-09-14T04:52:32.552Z,94666.5
2022-09-14T04:53:35.030Z,94670.8
2022-09-14T04:54:37.223Z,94673.3
2022-09-14T04:55:39.435Z,94671.8
2022-09-14T04:56:41.620Z,94669.8
2022-09-14T04:57:43.844Z,94668.7
2022-09-14T04:59:51.426Z,94666.8
2022-09-14T05:00:53.645Z,94671.2
2022-09-14T05:01:56.518Z,94664.9
2022-09-14T05:02:59.606Z,94663.4
2022-09-14T05:04:01.641Z,94666
2022-09-14T05:05:03.313Z,94668
2022-09-14T05:06:05.806Z,94663.4
2022-09-14T05:07:08.010Z,94660.7
2022-09-14T05:08:10.480Z,94663.6
2022-09-14T05:09:12.684Z,94666.1
2022-09-14T05:10:15.156Z,94665.2
2022-09-14T05:11:17.364Z,94665.2
2022-09-14T05:12:19.833Z,94663
2022-09-14T05:13:22.055Z,94663.6
2022-09-14T05:14:24.264Z,94664.1
2022-09-14T05:15:26.790Z,94660.3
2022-09-14T05:16:29.807Z,94654.9
2022-09-14T05:17:32.372Z,94651.8
2022-09-14T05:18:34.840Z,94650.8
2022-09-14T05:19:36.748Z,94652
2022-09-14T05:20:40.669Z,94657.4
2022-09-14T05:21:42.700Z,94655.4
2022-09-14T05:22:44.622Z,94655.1
2022-09-14T05:23:46.566Z,94655.2
2022-09-14T05:24:48.749Z,94656.3
2022-09-14T05:25:50.960Z,94655.8
2022-09-14T05:28:00.377Z,94654
2022-09-14T05:29:02.954Z,94652.8
2022-09-14T05:30:05.418Z,94657.4
2022-09-14T05:31:07.755Z,94657.4
2022-09-14T05:32:10.327Z,94653.3
2022-09-14T05:33:12.813Z,94653
2022-09-14T05:34:15.008Z,94657.4
2022-09-14T05:35:16.938Z,94654
2022-09-14T05:36:19.150Z,94652.3
2022-09-14T05:37:21.408Z,94653
2022-09-14T05:38:23.606Z,94651.8
2022-09-14T05:39:26.100Z,94644.3
2022-09-14T05:40:28.577Z,94646.9
2022-09-14T05:41:30.907Z,94649
2022-09-14T05:42:33.074Z,94642.1
2022-09-14T05:43:35.276Z,94644.3
2022-09-14T05:44:37.768Z,94637.9
2022-09-14T05:45:40.249Z,94634.9
2022-09-14T05:46:42.527Z,94637.9
2022-09-14T05:47:45.171Z,94637.8
2022-09-14T05:48:47.632Z,94643.6
2022-09-14T05:49:50.119Z,94646.2
2022-09-14T05:50:52.590Z,94638.7
2022-09-14T05:51:55.188Z,94643.8
2022-09-14T05:52:57.497Z,94640.6
2022-09-14T05:53:59.995Z,94642.8
2022-09-14T05:55:02.528Z,94642.5
2022-09-14T05:56:05.026Z,94644.2
2022-09-14T05:57:07.219Z,94644.6
2022-09-14T05:58:09.692Z,94642
2022-09-14T05:59:12.160Z,94642.7
2022-09-14T06:00:14.654Z,94644.8
2022-09-14T06:01:16.845Z,94640.9
2022-09-14T06:02:19.620Z,94645.6
2022-09-14T06:03:22.184Z,94644.1
2022-09-14T06:04:24.683Z,94653.7
2022-09-14T06:05:27.291Z,94656.7
2022-09-14T06:06:29.562Z,94654.3
2022-09-14T06:07:31.772Z,94661.6
2022-09-14T06:08:34.263Z,94658.5
2022-09-14T06:09:36.739Z,94652
2022-09-14T06:10:38.933Z,94656.9
2022-09-14T06:11:41.151Z,94664.7
2022-09-14T06:12:43.362Z,94660
2022-09-14T06:13:45.287Z,94663.7
2022-09-14T06:14:47.484Z,94663.9
2022-09-14T06:15:49.787Z,94659
2022-09-14T06:16:51.987Z,94669.2
2022-09-14T06:17:54.486Z,94675.3
2022-09-14T06:18:57.060Z,94675.1
2022-09-14T06:21:04.250Z,94667.3
2022-09-14T06:22:06.442Z,94669
2022-09-14T06:23:08.941Z,94670.4
2022-09-14T06:24:11.442Z,94665.8
2022-09-14T06:25:13.910Z,94669.5
2022-09-14T06:26:16.407Z,94670.4
2022-09-14T06:27:18.308Z,94670.9
2022-09-14T06:28:20.782Z,94672.5
2022-09-14T06:29:23.249Z,94671.4
2022-09-14T06:30:25.764Z,94671.1
2022-09-14T06:31:28.141Z,94676.8
2022-09-14T06:32:30.101Z,94676.6
2022-09-14T06:33:31.826Z,94666.2
2022-09-14T06:34:34.332Z,94676.5
2022-09-14T06:35:36.268Z,94675.8
2022-09-14T06:36:38.757Z,94677.8
2022-09-14T06:37:41.232Z,94680.4
2022-09-14T06:38:43.644Z,94676.8
2022-09-14T06:39:46.506Z,94687.3
2022-09-14T06:40:48.879Z,94685.8
2022-09-14T06:41:51.359Z,94684.6
2022-09-14T06:42:53.544Z,94686.3
2022-09-14T06:43:55.767Z,94694.1
2022-09-14T06:44:57.987Z,94685.5
2022-09-14T06:46:00.192Z,94687.5
2022-09-14T06:47:02.718Z,94686.9
2022-09-14T06:48:04.920Z,94679
2022-09-14T06:49:07.434Z,94672.2
2022-09-14T06:50:09.631Z,94668.7
2022-09-14T06:51:11.536Z,94673
2022-09-14T06:52:14.006Z,94661.3
2022-09-14T06:53:16.495Z,94655.4
2022-09-14T06:54:18.851Z,94648.7
2022-09-14T06:55:21.156Z,94645.7
2022-09-14T06:56:23.080Z,94646.1
2022-09-14T06:57:25.013Z,94645
2022-09-14T06:58:27.210Z,94641.8
2022-09-14T06:59:29.693Z,94632.3
2022-09-14T07:00:31.319Z,94634.5
2022-09-14T07:01:33.246Z,94637.1
2022-09-14T07:02:36.023Z,94639.5
2022-09-14T07:03:38.316Z,94636.4
2022-09-14T07:04:40.812Z,94640.6
2022-09-14T07:05:43.399Z,94639.9
2022-09-14T07:06:45.606Z,94639
2022-09-14T07:07:47.514Z,94643.4
2022-09-14T07:08:49.680Z,94644.6
2022-09-14T07:09:51.917Z,94638.4
2022-09-14T07:10:54.418Z,94640
2022-09-14T07:11:56.891Z,94643.3
2022-09-14T07:12:58.789Z,94645.7
2022-09-14T07:14:00.999Z,94648.6
2022-09-14T07:15:03.483Z,94648.7
2022-09-14T07:16:05.423Z,94647.7
2022-09-14T07:17:07.361Z,94651
2022-09-14T07:18:09.863Z,94655.2
2022-09-14T07:19:12.072Z,94658.1
2022-09-14T07:20:14.274Z,94652.1
2022-09-14T07:21:16.547Z,94652.4
2022-09-14T07:22:18.747Z,94654.8
2022-09-14T07:23:20.665Z,94653
2022-09-14T07:24:22.864Z,94655.7
2022-09-14T07:25:25.375Z,94652.2
2022-09-14T07:26:27.868Z,94653.4
2022-09-14T07:27:30.385Z,94656.6
2022-09-14T07:28:34.502Z,94657.8
2022-09-14T07:29:36.419Z,94657.7
2022-09-14T07:30:39.187Z,94661.3
2022-09-14T07:31:41.188Z,94659.7
2022-09-14T07:32:43.666Z,94661.4
2022-09-14T07:33:46.018Z,94660.4
2022-09-14T07:34:47.946Z,94660.1
2022-09-14T07:35:50.181Z,94665.4
2022-09-14T07:36:52.752Z,94665
2022-09-14T07:37:54.984Z,94668.4
2022-09-14T07:38:57.180Z,94669.9
2022-09-14T07:39:59.687Z,94676.6
2022-09-14T07:41:02.337Z,94670.7
2022-09-14T07:42:04.833Z,94671.1
2022-09-14T07:43:07.301Z,94671.1
2022-09-14T07:44:09.206Z,94666.2
2022-09-14T07:45:11.670Z,94669.3
2022-09-14T07:46:14.729Z,94666.6
2022-09-14T07:47:17.127Z,94665.6
2022-09-14T07:48:19.352Z,94666.8
2022-09-14T07:49:21.300Z,94667.3
2022-09-14T07:50:23.922Z,94671.1
2022-09-14T07:51:26.459Z,94664.4
2022-09-14T07:52:29.034Z,94672.5
2022-09-14T07:53:31.235Z,94669
2022-09-14T07:54:33.450Z,94674
2022-09-14T07:55:35.938Z,94672.7
2022-09-14T07:56:38.509Z,94672.9
2022-09-14T07:58:46.066Z,94675.8
2022-09-14T07:59:48.538Z,94674
2022-09-14T08:00:51.011Z,94674.4
2022-09-14T08:01:54.131Z,94677.2
2022-09-14T08:02:56.910Z,94683.4
2022-09-14T08:05:04.471Z,94689.5
2022-09-14T08:06:06.969Z,94692.5
2022-09-14T08:07:08.912Z,94693.3
2022-09-14T08:08:11.416Z,94692.3
2022-09-14T08:09:13.610Z,94694.9
2022-09-14T08:10:15.820Z,94700.9
2022-09-14T08:11:18.010Z,94703.8
2022-09-14T08:12:20.210Z,94702.3
2022-09-14T08:13:22.701Z,94709.8
2022-09-14T08:14:25.290Z,94708.9
2022-09-14T08:16:32.524Z,94704
2022-09-14T08:17:34.831Z,94706.6
2022-09-14T08:18:37.031Z,94702.7
2022-09-14T08:19:39.250Z,94696.2
2022-09-14T08:20:41.730Z,94699.6
2022-09-14T08:22:49.135Z,94701.2
2022-09-14T08:23:51.443Z,94704.5
2022-09-14T08:24:53.642Z,94702
2022-09-14T08:25:55.840Z,94692.8
2022-09-14T08:26:58.025Z,94694.6
2022-09-14T08:28:00.522Z,94695
2022-09-14T08:29:02.991Z,94696
2022-09-14T08:30:05.317Z,94699.1
2022-09-14T08:31:07.524Z,94700.4
2022-09-14T08:32:09.940Z,94696.8
2022-09-14T08:33:12.008Z,94690.3
2022-09-14T08:34:14.218Z,94691.8
2022-09-14T08:35:16.696Z,94706.5
2022-09-14T08:36:19.175Z,94702.6
2022-09-14T08:37:21.681Z,94695
2022-09-14T08:38:24.287Z,94698.4
2022-09-14T08:39:26.600Z,94701.5
2022-09-14T08:40:29.308Z,94699.7
2022-09-14T08:41:31.892Z,94707.9
2022-09-14T08:42:34.499Z,94700.7
2022-09-14T08:43:36.440Z,94708.3
2022-09-14T08:44:38.926Z,94708.4
2022-09-14T08:45:41.628Z,94708.3
2022-09-14T08:46:44.258Z,94708.8
2022-09-14T08:47:46.727Z,94712.8
2022-09-14T08:48:49.214Z,94715
2022-09-14T08:49:51.286Z,94710.4
2022-09-14T08:50:53.497Z,94707.1
2022-09-14T08:51:55.987Z,94706
2022-09-14T08:52:58.528Z,94710.2
2022-09-14T08:54:01.078Z,94707.9
2022-09-14T08:55:03.301Z,94711.3
2022-09-14T08:56:05.790Z,94714.3
2022-09-14T08:57:08.279Z,94720
2022-09-14T08:58:10.749Z,94721.9
2022-09-14T08:59:12.963Z,94718.5
2022-09-14T09:00:15.436Z,94719.4
2022-09-14T09:01:18.000Z,94720.6
2022-09-14T09:02:20.578Z,94716.5
2022-09-14T09:03:23.296Z,94725.7
2022-09-14T09:04:25.409Z,94721.6
2022-09-14T09:05:27.889Z,94730.3
2022-09-14T09:06:30.086Z,94730.9
2022-09-14T09:07:32.566Z,94732.4
2022-09-14T09:08:34.505Z,94725.4
2022-09-14T09:09:36.728Z,94733.8
2022-09-14T09:10:39.314Z,94731.1
2022-09-14T09:11:41.221Z,94731.6
2022-09-14T09:12:43.428Z,94728.9
2022-09-14T09:13:45.900Z,94727.8
2022-09-14T09:14:48.488Z,94730.7
2022-09-14T09:15:51.049Z,94734.8
2022-09-14T09:16:53.373Z,94739.3
2022-09-14T09:17:55.576Z,94735.2
2022-09-14T09:18:58.055Z,94732.9
2022-09-14T09:20:00.529Z,94745.6
2022-09-14T09:21:03.023Z,94734.7
2022-09-14T09:22:05.263Z,94740.2
2022-09-14T09:23:07.751Z,94732
2022-09-14T09:24:10.240Z,94735.4
2022-09-14T09:25:12.742Z,94736.5
2022-09-14T09:26:15.262Z,94735
2022-09-14T09:27:17.734Z,94738.5
2022-09-14T09:28:20.212Z,94736.1
2022-09-14T09:29:22.687Z,94740.5
2022-09-14T09:30:25.173Z,94737.1
2022-09-14T09:31:27.138Z,94739.3
2022-09-14T09:32:29.697Z,94741.4
2022-09-14T09:33:32.173Z,94739.6
2022-09-14T09:34:34.378Z,94750.7
2022-09-14T09:35:36.857Z,94745.3
2022-09-14T09:36:39.355Z,94742.1
2022-09-14T09:37:41.834Z,94741.1
2022-09-14T09:38:44.028Z,94747
2022-09-14T09:39:46.485Z,94746.1
2022-09-14T09:40:48.830Z,94744.3
2022-09-14T09:41:51.358Z,94745.5
2022-09-14T09:42:53.827Z,94743
2022-09-14T09:43:56.037Z,94744
2022-09-14T09:46:03.030Z,94761.1
2022-09-14T09:47:05.865Z,94758.9
2022-09-14T09:48:08.251Z,94756.8
2022-09-14T09:49:10.493Z,94757.8
2022-09-14T09:50:12.132Z,94757.4
2022-09-14T09:51:14.058Z,94765.6
2022-09-14T09:52:16.269Z,94752.4
2022-09-14T09:53:18.475Z,94751.8
2022-09-14T09:54:20.398Z,94751.1
2022-09-14T09:55:22.646Z,94744.7
2022-09-14T09:56:24.975Z,94744.5
2022-09-14T09:57:27.305Z,94748.9
2022-09-14T09:58:29.795Z,94746.3
2022-09-14T09:59:32.279Z,94741.6
2022-09-14T10:00:34.751Z,94746.1
2022-09-14T10:01:37.487Z,94757.4
2022-09-14T10:02:40.492Z,94739.5
2022-09-14T10:03:42.612Z,94734.7
2022-09-14T10:04:45.226Z,94730.8
2022-09-14T10:05:47.438Z,94734.6
2022-09-14T10:06:49.915Z,94724.1
2022-09-14T10:07:52.130Z,94722.1
2022-09-14T10:08:54.333Z,94713.9
2022-09-14T10:09:56.540Z,94713.8
2022-09-14T10:10:59.038Z,94708.2
2022-09-14T10:12:01.552Z,94704
2022-09-14T10:13:03.765Z,94719
2022-09-14T10:14:05.958Z,94700.5
2022-09-14T10:15:08.148Z,94706.5
2022-09-14T10:16:10.933Z,94700.5
2022-09-14T10:17:13.026Z,94699.7
2022-09-14T10:18:15.531Z,94693.9
2022-09-14T10:19:18.030Z,94686.8
2022-09-14T10:20:20.528Z,94695.5
2022-09-14T10:21:22.991Z,94701.8
2022-09-14T10:23:30.459Z,94701.4
2022-09-14T10:24:32.949Z,94700
2022-09-14T10:25:35.427Z,94707.3
2022-09-14T10:26:38.010Z,94701.8
2022-09-14T10:27:39.960Z,94704.6
2022-09-14T10:28:42.450Z,94698
2022-09-14T10:29:44.918Z,94693.8
2022-09-14T10:30:47.459Z,94707.4
2022-09-14T10:31:50.127Z,94704.3
2022-09-14T10:32:52.651Z,94697.8
2022-09-14T10:33:54.855Z,94688.9
2022-09-14T10:34:57.355Z,94687.3
2022-09-14T10:35:59.827Z,94677.2
2022-09-14T10:37:02.314Z,94670.6
2022-09-14T10:38:04.522Z,94671.8
2022-09-14T10:39:07.028Z,94671.7
2022-09-14T10:40:08.992Z,94665.8
2022-09-14T10:41:11.064Z,94660.3
2022-09-14T10:42:13.282Z,94656.1
2022-09-14T10:43:15.880Z,94654.6
2022-09-14T10:44:18.374Z,94659.5
2022-09-14T10:45:20.585Z,94656.2
2022-09-14T10:46:23.352Z,94659.9
2022-09-14T10:47:25.360Z,94653.9
2022-09-14T10:48:28.445Z,94655.2
2022-09-14T10:49:30.788Z,94644.3
2022-09-14T10:50:33.293Z,94649.7
2022-09-14T10:51:35.508Z,94651.5
2022-09-14T10:52:37.996Z,94644
2022-09-14T10:53:40.483Z,94647.9
2022-09-14T10:54:42.953Z,94645.1
2022-09-14T10:55:45.429Z,94655.4
2022-09-14T10:56:47.622Z,94661.9
2022-09-14T10:57:49.858Z,94658.7
2022-09-14T10:58:51.524Z,94665.4
2022-09-14T10:59:53.816Z,94655
2022-09-14T11:00:56.020Z,94655.5
2022-09-14T11:01:59.078Z,94643.8
2022-09-14T11:03:02.064Z,94649
2022-09-14T11:04:04.714Z,94648.8
2022-09-14T11:05:07.187Z,94646.3
2022-09-14T11:06:09.699Z,94651
2022-09-14T11:07:12.180Z,94652.4
2022-09-14T11:08:14.651Z,94644.7
2022-09-14T11:09:17.123Z,94651.2
2022-09-14T11:10:19.322Z,94656.5
2022-09-14T11:11:21.520Z,94641.2
2022-09-14T11:12:24.000Z,94644.2
2022-09-14T11:13:26.259Z,94639.7
2022-09-14T11:14:28.211Z,94644.3
2022-09-14T11:15:30.124Z,94645.9
2022-09-14T11:16:32.583Z,94644.3
2022-09-14T11:17:34.806Z,94639.7
2022-09-14T11:18:37.282Z,94640
2022-09-14T11:19:39.531Z,94630.9
2022-09-14T11:21:47.116Z,94629.1
2022-09-14T11:22:49.309Z,94631.8
2022-09-14T11:23:51.589Z,94627.1
2022-09-14T11:24:53.795Z,94623.1
2022-09-14T11:25:55.728Z,94617.2
2022-09-14T11:26:58.201Z,94618.4
2022-09-14T11:28:00.671Z,94620.4
2022-09-14T11:29:03.175Z,94619.4
2022-09-14T11:30:05.432Z,94618.8
2022-09-14T11:31:08.372Z,94605.3
2022-09-14T11:33:15.961Z,94611.9
2022-09-14T11:34:18.447Z,94608.4
2022-09-14T11:35:21.028Z,94600.9
2022-09-14T11:36:23.504Z,94602.8
2022-09-14T11:37:25.526Z,94609.9
2022-09-14T11:38:27.994Z,94605.2
2022-09-14T11:39:30.464Z,94607.6
2022-09-14T11:40:33.369Z,94605
2022-09-14T11:41:36.084Z,94604.1
2022-09-14T11:42:38.588Z,94608.8
2022-09-14T11:43:40.975Z,94602.7
2022-09-14T11:44:43.480Z,94592.4
2022-09-14T11:45:45.716Z,94593.6
2022-09-14T11:46:48.338Z,94585.3
2022-09-14T11:47:50.795Z,94588.2
2022-09-14T11:48:53.622Z,94586.9
2022-09-14T11:49:56.710Z,94583.5
2022-09-14T11:50:58.940Z,94582.3
2022-09-14T11:52:01.144Z,94581.3
2022-09-14T11:53:03.639Z,94586.6
2022-09-14T11:54:05.821Z,94581.3
2022-09-14T11:55:08.005Z,94584.3
2022-09-14T11:56:10.215Z,94577.8
2022-09-14T11:57:12.465Z,94582.2
2022-09-14T11:58:14.662Z,94579.2
2022-09-14T11:59:16.846Z,94583.9
2022-09-14T12:00:18.885Z,94585.6
2022-09-14T12:01:21.140Z,94575.3
2022-09-14T12:02:24.247Z,94576.7
2022-09-14T12:03:26.871Z,94575
2022-09-14T12:04:29.141Z,94571.4
2022-09-14T12:05:31.078Z,94566
2022-09-14T12:06:33.596Z,94561.7
2022-09-14T12:07:36.095Z,94562.4
2022-09-14T12:08:38.476Z,94564.2
2022-09-14T12:09:40.759Z,94573.2
2022-09-14T12:11:47.959Z,94569.4
2022-09-14T12:12:50.451Z,94571.9
2022-09-14T12:13:52.633Z,94569
2022-09-14T12:14:55.110Z,94566.5
2022-09-14T12:15:57.694Z,94569.6
2022-09-14T12:17:00.260Z,94566
2022-09-14T12:18:02.809Z,94569.2
2022-09-14T12:19:04.462Z,94568.8
2022-09-14T12:20:07.055Z,94568
2022-09-14T12:21:09.355Z,94564.2
2022-09-14T12:22:11.577Z,94570.4
2022-09-14T12:23:14.094Z,94572.3
2022-09-14T12:24:16.608Z,94569.6
2022-09-14T12:25:18.832Z,94568.1
2022-09-14T12:26:21.304Z,94566.8
2022-09-14T12:27:23.797Z,94571.4
2022-09-14T12:28:25.974Z,94571
2022-09-14T12:29:28.174Z,94574.5
2022-09-14T12:30:30.647Z,94579.8
2022-09-14T12:31:33.674Z,94576.8
2022-09-14T12:32:35.972Z,94579.7
2022-09-14T12:33:38.204Z,94578.7
2022-09-14T12:34:40.728Z,94577.8
2022-09-14T12:35:42.929Z,94586
2022-09-14T12:36:44.862Z,94578.6
2022-09-14T12:37:47.438Z,94573.5
2022-09-14T12:38:49.944Z,94573.5
2022-09-14T12:39:52.704Z,94571.9
2022-09-14T12:40:55.038Z,94574.7
2022-09-14T12:41:57.521Z,94580.4
2022-09-14T12:42:59.756Z,94578
2022-09-14T12:44:01.690Z,94584.8
2022-09-14T12:45:04.254Z,94584.7
2022-09-14T12:46:06.506Z,94579.2
2022-09-14T12:47:09.053Z,94585.1
2022-09-14T12:48:11.046Z,94583
2022-09-14T12:49:13.328Z,94585.9
2022-09-14T12:50:15.814Z,94583.3
2022-09-14T12:51:18.292Z,94587.8
2022-09-14T12:52:20.789Z,94589.3
2022-09-14T12:53:23.009Z,94591.3
2022-09-14T12:54:25.230Z,94592.5
2022-09-14T12:55:27.179Z,94590.7